Time;durP1;ratioP1;P1;durP2;ratioP2;P2;SDS_P1;SDS_P2;PMS_P1;PMS_P2;Temp;Humidity;BMP_temperature;BMP_pressure;BME280_temperature;BME280_humidity;BME280_pressure;Samples;Min_cycle;Max_cycle;Signal;HPM_P1;HPM_P2
2023/03/27 00:00:21;;;;;;;9.23;2.75;;;0.10;99.90;;;;;;4952212;28;20043;-75
2023/03/27 00:02:49;;;;;;;2.10;1.00;;;0.10;99.90;;;;;;4955967;28;20523;-75
2023/03/27 00:05:19;;;;;;;3.15;1.05;;;0.00;99.90;;;;;;4974207;28;20497;-75
2023/03/27 00:07:47;;;;;;;9.80;3.15;;;0.00;99.90;;;;;;4965086;28;20075;-75
2023/03/27 00:10:13;;;;;;;5.47;1.25;;;0.00;99.90;;;;;;4954773;28;20042;-75
2023/03/27 00:12:39;;;;;;;8.13;2.53;;;0.00;99.90;;;;;;4963117;28;20129;-75
2023/03/27 00:15:05;;;;;;;5.20;1.42;;;0.10;99.90;;;;;;4949335;28;20122;-75
2023/03/27 00:17:31;;;;;;;7.38;1.30;;;0.00;99.90;;;;;;4934355;29;20494;-75
2023/03/27 00:19:56;;;;;;;5.97;1.90;;;0.00;99.90;;;;;;4958053;28;20082;-75
2023/03/27 00:22:22;;;;;;;4.30;1.58;;;0.00;99.90;;;;;;4964784;28;20338;-75
2023/03/27 00:24:50;;;;;;;8.50;3.08;;;0.00;99.90;;;;;;4962155;28;20086;-75
2023/03/27 00:27:16;;;;;;;5.07;1.83;;;0.00;99.90;;;;;;4966903;28;20039;-75
2023/03/27 00:29:42;;;;;;;7.03;3.17;;;0.00;99.90;;;;;;4954089;28;20094;-75
2023/03/27 00:32:08;;;;;;;8.82;3.03;;;0.10;99.90;;;;;;4939667;28;20050;-75
2023/03/27 00:34:33;;;;;;;1.77;1.00;;;0.10;99.90;;;;;;4972743;28;20034;-75
2023/03/27 00:36:59;;;;;;;4.57;1.77;;;0.10;99.90;;;;;;4971236;28;20082;-75
2023/03/27 00:39:24;;;;;;;8.32;3.33;;;0.10;99.90;;;;;;4953995;28;20036;-75
2023/03/27 00:41:50;;;;;;;9.55;3.08;;;0.10;99.90;;;;;;4966643;28;20046;-75
2023/03/27 00:44:36;;;;;;;7.70;2.25;;;0.10;99.90;;;;;;4972879;28;20397;-75
2023/03/27 00:47:03;;;;;;;6.00;1.08;;;0.10;99.90;;;;;;4970675;28;20421;-75
2023/03/27 00:49:32;;;;;;;3.63;1.10;;;0.20;99.90;;;;;;4931138;29;20189;-75
2023/03/27 00:52:00;;;;;;;3.58;1.20;;;0.20;99.90;;;;;;4968415;28;20050;-75
2023/03/27 00:54:29;;;;;;;2.00;0.80;;;0.30;99.90;;;;;;4972459;28;20046;-75
2023/03/27 00:56:58;;;;;;;10.32;2.72;;;0.30;99.90;;;;;;4943841;28;20498;-75
2023/03/27 00:59:29;;;;;;;7.85;1.48;;;0.30;99.90;;;;;;4950591;28;20032;-75
2023/03/27 01:01:56;;;;;;;6.47;1.58;;;0.40;99.90;;;;;;4959637;28;20047;-75
2023/03/27 01:04:25;;;;;;;9.30;2.58;;;0.30;99.90;;;;;;4963246;28;20403;-75
2023/03/27 01:06:54;;;;;;;7.72;1.90;;;0.30;99.90;;;;;;4972190;28;20081;-75
2023/03/27 01:09:20;;;;;;;7.90;2.70;;;0.40;99.90;;;;;;4951789;28;20031;-75
2023/03/27 01:12:22;;;;;;;5.85;2.15;;;0.40;99.90;;;;;;4941044;29;20043;-75
2023/03/27 01:15:26;;;;;;;5.90;1.73;;;0.40;99.90;;;;;;4906121;29;20213;-75
2023/03/27 01:18:23;;;;;;;4.45;0.82;;;0.30;99.90;;;;;;4959956;28;20429;-75
2023/03/27 01:20:54;;;;;;;7.22;1.13;;;0.30;99.90;;;;;;4946837;28;20147;-75
2023/03/27 01:23:45;;;;;;;5.75;1.20;;;0.30;99.90;;;;;;4959622;28;20046;-75
2023/03/27 01:26:56;;;;;;;2.40;1.33;;;0.20;99.90;;;;;;4964040;28;20046;-75
2023/03/27 01:29:30;;;;;;;2.17;0.88;;;0.20;99.90;;;;;;4952603;28;20055;-74
2023/03/27 01:32:33;;;;;;;3.95;1.05;;;0.20;99.90;;;;;;4948048;28;20340;-75
2023/03/27 01:35:25;;;;;;;;;;;0.20;99.90;;;;;;4970146;28;20405;-75
2023/03/27 01:38:24;;;;;;;1.08;0.70;;;0.20;99.90;;;;;;4916094;28;19925;-75
2023/03/27 01:41:24;;;;;;;5.13;1.33;;;0.20;99.90;;;;;;4951957;28;20059;-75
2023/03/27 01:43:58;;;;;;;1.95;0.80;;;0.20;99.90;;;;;;4933683;29;20102;-75
2023/03/27 01:46:31;;;;;;;6.13;2.30;;;0.20;99.90;;;;;;4947123;28;20453;-75
2023/03/27 01:49:16;;;;;;;9.00;1.45;;;0.20;99.90;;;;;;4962466;28;20560;-75
2023/03/27 01:51:50;;;;;;;4.95;0.95;;;0.20;99.90;;;;;;4956182;28;20063;-75
2023/03/27 01:54:31;;;;;;;3.20;1.20;;;0.20;99.90;;;;;;4917563;29;20040;-75
2023/03/27 01:57:07;;;;;;;7.90;2.40;;;0.20;99.90;;;;;;4958916;28;20398;-75
2023/03/27 01:59:38;;;;;;;4.22;0.88;;;0.30;99.90;;;;;;4941486;28;20036;-75
2023/03/27 02:02:19;;;;;;;7.75;2.67;;;0.30;99.90;;;;;;4953264;28;20117;-75
2023/03/27 02:04:56;;;;;;;1.48;1.08;;;0.30;99.90;;;;;;4971675;28;20158;-75
2023/03/27 02:07:28;;;;;;;6.30;1.38;;;0.30;99.90;;;;;;4971725;28;20050;-75
2023/03/27 02:09:59;;;;;;;7.30;2.70;;;0.30;99.90;;;;;;4956594;28;20499;-75
2023/03/27 02:12:31;;;;;;;2.65;1.40;;;0.30;99.90;;;;;;4950361;28;20047;-75
2023/03/27 02:15:03;;;;;;;9.18;2.70;;;0.30;99.90;;;;;;4971988;28;20549;-75
2023/03/27 02:17:32;;;;;;;4.53;0.60;;;0.30;99.90;;;;;;4947828;28;20031;-75
2023/03/27 02:20:14;;;;;;;7.93;1.50;;;0.20;99.90;;;;;;4953479;28;20032;-75
2023/03/27 02:22:44;;;;;;;9.05;2.90;;;0.20;99.90;;;;;;4951289;28;20511;-75
2023/03/27 02:25:21;;;;;;;2.03;1.33;;;0.20;99.90;;;;;;4949044;28;20089;-75
2023/03/27 02:27:48;;;;;;;2.38;1.20;;;0.20;99.90;;;;;;4971679;28;20066;-75
2023/03/27 02:30:56;;;;;;;1.33;0.80;;;0.10;99.90;;;;;;4965223;28;20045;-75
2023/03/27 02:33:34;;;;;;;1.60;1.05;;;0.10;99.90;;;;;;4925769;28;20055;-75
2023/03/27 02:36:15;;;;;;;2.30;1.15;;;0.10;99.90;;;;;;4950956;28;20038;-75
2023/03/27 02:38:58;;;;;;;8.48;3.42;;;0.10;99.90;;;;;;4963246;28;20082;-75
2023/03/27 02:41:50;;;;;;;6.07;2.92;;;0.10;99.90;;;;;;4953271;28;20039;-75
2023/03/27 02:44:30;;;;;;;4.53;1.33;;;0.10;99.90;;;;;;4949226;28;20058;-75
2023/03/27 02:47:15;;;;;;;6.70;1.52;;;0.10;99.90;;;;;;4962082;28;20053;-75
2023/03/27 02:49:50;;;;;;;3.80;1.60;;;0.20;99.90;;;;;;4965935;28;20050;-75
2023/03/27 02:52:27;;;;;;;4.07;1.27;;;0.30;99.90;;;;;;4964057;28;20055;-75
2023/03/27 02:55:05;;;;;;;6.28;1.50;;;0.60;99.90;;;;;;4965980;28;20376;-75
2023/03/27 02:57:37;;;;;;;4.68;0.90;;;0.70;99.90;;;;;;4939467;29;20039;-75
2023/03/27 03:00:11;;;;;;;6.22;1.27;;;0.90;99.90;;;;;;4952280;28;20035;-76
2023/03/27 03:02:38;;;;;;;2.88;0.82;;;1.10;99.90;;;;;;4959632;28;20047;-75
2023/03/27 03:05:16;;;;;;;3.90;0.90;;;1.20;99.90;;;;;;4972291;28;20035;-75
2023/03/27 03:07:45;;;;;;;11.52;1.50;;;1.40;99.90;;;;;;4972239;28;20042;-75
2023/03/27 03:10:11;;;;;;;3.45;0.90;;;1.50;99.90;;;;;;4960864;28;20074;-75
2023/03/27 03:12:37;;;;;;;3.78;0.80;;;1.50;99.90;;;;;;4961598;28;20042;-75
2023/03/27 03:15:03;;;;;;;5.07;0.82;;;1.50;99.90;;;;;;4963148;28;20062;-75
2023/03/27 03:17:28;;;;;;;3.80;1.15;;;1.50;99.90;;;;;;4972067;28;20489;-75
2023/03/27 03:19:54;;;;;;;5.35;1.30;;;1.40;99.90;;;;;;4965108;28;20028;-75
2023/03/27 03:22:19;;;;;;;1.65;0.60;;;1.40;99.90;;;;;;4954012;28;20052;-75
2023/03/27 03:24:45;;;;;;;5.68;1.35;;;1.40;99.90;;;;;;4942387;29;20051;-75
2023/03/27 03:27:13;;;;;;;4.72;1.58;;;1.30;99.90;;;;;;4959734;28;20062;-75
2023/03/27 03:29:38;;;;;;;1.40;0.60;;;1.20;99.90;;;;;;4967557;28;20046;-75
2023/03/27 03:32:05;;;;;;;3.15;1.20;;;1.20;99.90;;;;;;4961417;28;20032;-75
2023/03/27 03:34:32;;;;;;;5.88;1.70;;;1.20;99.90;;;;;;4965774;28;20096;-75
2023/03/27 03:36:58;;;;;;;5.10;1.50;;;1.20;99.90;;;;;;4964818;28;20042;-75
2023/03/27 03:39:23;;;;;;;1.80;0.80;;;1.20;99.90;;;;;;4961875;28;20042;-75
2023/03/27 03:41:49;;;;;;;7.15;1.73;;;1.30;99.90;;;;;;4948282;28;20098;-75
2023/03/27 03:44:15;;;;;;;5.10;2.15;;;1.40;99.90;;;;;;4966168;28;20125;-75
2023/03/27 03:46:41;;;;;;;6.15;1.70;;;1.50;99.90;;;;;;4973762;28;20137;-75
2023/03/27 03:49:07;;;;;;;6.78;1.73;;;1.70;99.90;;;;;;4972242;28;20133;-75
2023/03/27 03:51:34;;;;;;;5.88;1.00;;;1.80;99.90;;;;;;4958130;28;20045;-75
2023/03/27 03:54:00;;;;;;;2.60;0.70;;;1.80;99.90;;;;;;4970294;28;20078;-75
2023/03/27 03:56:28;;;;;;;5.43;1.85;;;1.80;99.90;;;;;;4973752;28;20070;-75
2023/03/27 03:58:54;;;;;;;9.30;2.08;;;1.80;99.90;;;;;;4956852;28;20073;-75
2023/03/27 04:01:21;;;;;;;4.75;1.52;;;1.70;99.90;;;;;;4951233;28;20044;-75
2023/03/27 04:03:47;;;;;;;5.88;1.88;;;1.60;99.90;;;;;;4919939;29;20142;-75
2023/03/27 04:06:16;;;;;;;7.13;1.98;;;1.50;99.90;;;;;;4941736;28;20126;-75
2023/03/27 04:08:43;;;;;;;7.63;1.13;;;1.40;99.90;;;;;;4959036;28;20167;-75
2023/03/27 04:11:09;;;;;;;4.65;1.58;;;1.30;99.90;;;;;;4958372;28;20043;-75
2023/03/27 04:13:35;;;;;;;3.72;0.70;;;1.20;99.90;;;;;;4920654;29;20040;-75
2023/03/27 04:16:00;;;;;;;2.88;1.02;;;1.10;99.90;;;;;;4942075;28;20062;-75
2023/03/27 04:18:31;;;;;;;3.38;0.70;;;1.00;99.90;;;;;;4973137;28;20046;-75
2023/03/27 04:20:59;;;;;;;7.50;1.45;;;0.90;99.90;;;;;;4967470;28;20039;-75
2023/03/27 04:23:29;;;;;;;3.05;0.73;;;0.80;99.90;;;;;;4968352;28;20042;-75
2023/03/27 04:25:59;;;;;;;2.20;0.88;;;0.80;99.90;;;;;;4973358;28;20404;-75
2023/03/27 04:28:33;;;;;;;7.80;1.80;;;0.60;99.90;;;;;;4973047;28;20050;-75
2023/03/27 04:31:06;;;;;;;6.80;2.28;;;0.50;99.90;;;;;;4947189;28;20411;-75
2023/03/27 04:33:33;;;;;;;3.70;1.98;;;0.50;99.90;;;;;;4973414;28;20417;-75
2023/03/27 04:35:59;;;;;;;1.40;0.73;;;0.40;99.90;;;;;;4973115;28;20072;-75
2023/03/27 04:38:26;;;;;;;13.23;2.72;;;0.40;99.90;;;;;;4959322;28;20126;-75
2023/03/27 04:40:52;;;;;;;2.72;0.95;;;0.30;99.90;;;;;;4942805;28;20601;-75
2023/03/27 04:43:18;;;;;;;10.70;2.60;;;0.20;99.90;;;;;;4963002;28;20046;-75
2023/03/27 04:45:47;;;;;;;3.67;1.38;;;0.20;99.90;;;;;;4971730;28;20038;-75
2023/03/27 04:48:13;;;;;;;3.70;1.13;;;0.20;99.90;;;;;;4934274;29;20727;-75
2023/03/27 04:50:40;;;;;;;6.97;2.40;;;0.10;99.90;;;;;;4947574;28;20049;-75
2023/03/27 04:53:07;;;;;;;9.00;1.13;;;0.10;99.90;;;;;;4964241;28;20039;-75
2023/03/27 04:55:36;;;;;;;4.30;1.38;;;0.10;99.90;;;;;;4972678;28;20046;-75
2023/03/27 04:58:06;;;;;;;2.58;1.05;;;0.10;99.90;;;;;;4956139;28;20036;-75
2023/03/27 05:00:32;;;;;;;1.88;0.82;;;0.10;99.90;;;;;;4947431;28;20040;-75
2023/03/27 05:02:59;;;;;;;4.05;0.80;;;0.10;99.90;;;;;;4955457;28;20102;-75
2023/03/27 05:05:25;;;;;;;7.13;2.20;;;0.10;99.90;;;;;;4957623;28;20078;-75
2023/03/27 05:07:51;;;;;;;6.20;1.20;;;0.20;99.90;;;;;;4972106;28;20078;-75
2023/03/27 05:10:16;;;;;;;3.50;0.77;;;0.10;99.90;;;;;;4949695;28;20453;-78
2023/03/27 05:12:47;;;;;;;2.25;1.05;;;0.10;99.90;;;;;;4943483;29;20395;-76
2023/03/27 05:15:14;;;;;;;2.67;0.98;;;0.10;99.90;;;;;;4955152;28;20454;-76
2023/03/27 05:17:42;;;;;;;4.82;0.95;;;0.10;99.90;;;;;;4963646;28;20053;-77
2023/03/27 05:20:11;;;;;;;2.33;0.93;;;0.10;99.90;;;;;;4950810;28;20042;-75
2023/03/27 05:22:37;;;;;;;1.95;1.10;;;0.10;99.90;;;;;;4933238;29;20036;-75
2023/03/27 05:25:03;;;;;;;3.60;1.13;;;0.10;99.90;;;;;;4950985;28;20086;-75
2023/03/27 05:27:29;;;;;;;7.03;2.28;;;0.10;99.90;;;;;;4955894;28;20059;-74
2023/03/27 05:29:54;;;;;;;8.57;3.25;;;0.10;99.90;;;;;;4956870;28;20502;-74
2023/03/27 05:32:20;;;;;;;11.13;3.05;;;0.20;99.90;;;;;;4949267;28;20118;-73
2023/03/27 05:34:49;;;;;;;11.35;3.28;;;0.30;99.90;;;;;;4945303;28;20091;-72
2023/03/27 05:37:15;;;;;;;4.05;1.48;;;0.30;99.90;;;;;;4943593;29;20098;-74
2023/03/27 05:39:40;;;;;;;9.48;3.38;;;0.40;99.90;;;;;;4967500;28;20193;-74
2023/03/27 05:42:06;;;;;;;3.13;1.13;;;0.40;99.90;;;;;;4965421;28;20046;-74
2023/03/27 05:44:32;;;;;;;2.22;1.00;;;0.50;99.90;;;;;;4971557;28;20042;-74
2023/03/27 05:46:58;;;;;;;11.13;3.08;;;0.60;99.90;;;;;;4971676;28;20506;-74
2023/03/27 05:49:23;;;;;;;8.32;1.30;;;0.60;99.90;;;;;;4972024;28;20073;-74
2023/03/27 05:51:49;;;;;;;6.45;2.88;;;0.70;99.90;;;;;;4971311;28;20043;-74
2023/03/27 05:54:15;;;;;;;3.88;1.20;;;0.70;99.90;;;;;;4971769;28;20043;-74
2023/03/27 05:56:43;;;;;;;6.40;2.92;;;0.70;99.90;;;;;;4951044;28;20052;-74
2023/03/27 05:59:08;;;;;;;6.80;2.40;;;0.70;99.90;;;;;;4956355;28;20089;-75
2023/03/27 06:01:34;;;;;;;9.13;1.50;;;0.70;99.90;;;;;;4959984;28;20042;-74
2023/03/27 06:04:00;;;;;;;10.77;1.90;;;0.80;99.90;;;;;;4971316;28;20121;-74
2023/03/27 06:06:25;;;;;;;9.73;3.03;;;0.80;99.90;;;;;;4971771;28;20565;-74
2023/03/27 06:08:52;;;;;;;7.25;2.90;;;0.90;99.90;;;;;;4959228;28;20043;-74
2023/03/27 06:11:17;;;;;;;11.95;3.00;;;0.90;99.90;;;;;;4945484;28;20078;-74
2023/03/27 06:13:43;;;;;;;14.88;3.03;;;1.00;99.90;;;;;;4954800;28;20066;-74
2023/03/27 06:16:09;;;;;;;11.70;3.15;;;1.00;99.90;;;;;;4971387;28;20050;-74
2023/03/27 06:18:35;;;;;;;9.27;3.05;;;1.10;99.90;;;;;;4971441;28;20154;-74
2023/03/27 06:21:01;;;;;;;5.63;2.33;;;1.10;99.90;;;;;;4971466;28;20141;-74
2023/03/27 06:23:26;;;;;;;7.57;3.60;;;1.20;99.90;;;;;;4975224;28;20093;-74
2023/03/27 06:25:52;;;;;;;8.45;2.90;;;1.30;99.90;;;;;;4959121;28;20046;-74
2023/03/27 06:28:19;;;;;;;6.40;2.50;;;1.30;99.90;;;;;;4959458;28;20053;-74
2023/03/27 06:30:46;;;;;;;5.80;1.02;;;1.30;99.90;;;;;;4975022;28;20076;-74
2023/03/27 06:33:13;;;;;;;8.07;2.60;;;1.40;99.90;;;;;;4958653;28;20035;-74
2023/03/27 06:35:40;;;;;;;7.03;2.10;;;1.40;99.90;;;;;;4958862;28;20051;-74
2023/03/27 06:38:06;;;;;;;7.50;2.40;;;1.50;99.90;;;;;;4974935;28;20057;-74
2023/03/27 06:40:34;;;;;;;5.57;1.05;;;1.50;99.90;;;;;;4974970;28;20130;-74
2023/03/27 06:43:07;;;;;;;6.47;2.35;;;1.50;99.90;;;;;;4974594;28;20517;-74
2023/03/27 06:45:37;;;;;;;4.25;2.05;;;1.60;99.90;;;;;;4974974;28;20050;-74
2023/03/27 06:48:04;;;;;;;2.63;1.00;;;1.70;99.90;;;;;;4975060;28;20056;-74
2023/03/27 06:50:31;;;;;;;8.57;2.10;;;1.80;99.90;;;;;;4975038;28;20046;-75
2023/03/27 06:52:57;;;;;;;7.45;2.20;;;1.80;99.90;;;;;;4974585;28;20042;-75
2023/03/27 06:55:26;;;;;;;8.68;2.38;;;1.90;99.90;;;;;;4975165;28;20442;-75
2023/03/27 06:57:54;;;;;;;6.57;2.95;;;2.00;99.90;;;;;;4974847;28;20062;-75
2023/03/27 07:00:23;;;;;;;9.77;3.55;;;2.00;99.90;;;;;;4975143;28;20113;-75
2023/03/27 07:02:57;;;;;;;6.15;2.88;;;2.10;99.90;;;;;;4974256;28;20046;-75
2023/03/27 07:05:24;;;;;;;9.73;2.80;;;2.20;99.90;;;;;;4974543;28;20031;-75
2023/03/27 07:07:49;;;;;;;3.67;1.73;;;2.30;99.90;;;;;;4974710;28;20050;-75
2023/03/27 07:10:16;;;;;;;7.82;3.13;;;2.30;99.90;;;;;;4974437;28;20043;-75
2023/03/27 07:12:46;;;;;;;7.55;2.72;;;2.40;99.90;;;;;;4974182;28;20181;-75
2023/03/27 07:15:11;;;;;;;12.82;3.50;;;2.50;99.90;;;;;;4974253;28;20121;-75
2023/03/27 07:17:39;;;;;;;9.35;2.80;;;2.60;99.90;;;;;;4974595;28;20177;-75
2023/03/27 07:20:06;;;;;;;8.93;2.75;;;2.70;99.90;;;;;;4974226;28;20039;-75
2023/03/27 07:22:31;;;;;;;3.67;1.00;;;2.80;99.90;;;;;;4973986;28;20055;-75
2023/03/27 07:24:57;;;;;;;5.25;1.30;;;2.90;99.90;;;;;;4974111;28;20046;-75
2023/03/27 07:27:24;;;;;;;7.30;2.17;;;3.00;99.90;;;;;;4974168;28;20407;-75
2023/03/27 07:29:49;;;;;;;8.52;2.85;;;3.10;99.90;;;;;;4974092;28;20055;-74
2023/03/27 07:32:15;;;;;;;6.53;1.73;;;3.10;99.90;;;;;;4973374;28;20053;-74
2023/03/27 07:34:41;;;;;;;4.60;1.67;;;3.20;99.90;;;;;;4973200;28;20042;-74
2023/03/27 07:37:06;;;;;;;6.43;1.80;;;3.30;99.90;;;;;;4973933;28;20113;-75
2023/03/27 07:39:32;;;;;;;6.25;1.40;;;3.40;99.90;;;;;;4974098;28;20520;-75
2023/03/27 07:41:58;;;;;;;6.95;1.40;;;3.50;99.90;;;;;;4973666;28;20045;-75
2023/03/27 07:44:24;;;;;;;5.22;1.42;;;3.50;99.90;;;;;;4974048;28;20057;-75
2023/03/27 07:46:52;;;;;;;9.52;1.50;;;3.60;99.90;;;;;;4973979;28;20058;-75
2023/03/27 07:49:18;;;;;;;5.45;1.60;;;3.70;99.90;;;;;;4974472;28;20112;-75
2023/03/27 07:51:44;;;;;;;6.95;1.77;;;3.80;99.90;;;;;;4973429;28;20062;-75
2023/03/27 07:54:12;;;;;;;6.85;1.23;;;3.80;99.90;;;;;;4973731;28;20053;-75
2023/03/27 07:56:38;;;;;;;6.43;1.80;;;3.90;99.90;;;;;;4974192;28;20047;-75
2023/03/27 07:59:05;;;;;;;4.10;1.20;;;4.00;99.90;;;;;;4973517;28;20043;-75
2023/03/27 08:01:31;;;;;;;6.13;1.50;;;4.10;99.90;;;;;;4973262;28;20473;-75
2023/03/27 08:03:58;;;;;;;5.68;1.73;;;4.20;99.90;;;;;;4973690;28;20074;-75
2023/03/27 08:06:24;;;;;;;5.20;1.33;;;4.30;99.90;;;;;;4973702;28;20396;-75
2023/03/27 08:08:50;;;;;;;5.63;1.10;;;4.40;99.90;;;;;;4973441;28;20097;-75
2023/03/27 08:11:16;;;;;;;6.85;1.35;;;4.40;99.90;;;;;;4973329;28;20430;-75
2023/03/27 08:13:41;;;;;;;6.40;1.70;;;4.50;99.90;;;;;;4973896;28;20089;-75
2023/03/27 08:16:16;;;;;;;5.20;1.27;;;4.60;99.90;;;;;;4957552;28;20035;-75
2023/03/27 08:18:42;;;;;;;5.38;1.40;;;4.80;99.90;;;;;;4973636;28;20125;-75
2023/03/27 08:21:09;;;;;;;3.25;1.00;;;5.00;99.90;;;;;;4973014;28;20536;-75
2023/03/27 08:23:36;;;;;;;5.05;1.35;;;5.10;99.90;;;;;;4973193;28;20047;-75
2023/03/27 08:26:02;;;;;;;4.80;1.10;;;5.20;99.90;;;;;;4973061;28;20066;-75
2023/03/27 08:28:33;;;;;;;5.15;1.17;;;5.30;99.90;;;;;;4973154;28;20042;-75
2023/03/27 08:31:00;;;;;;;3.95;1.27;;;5.40;99.90;;;;;;4972929;28;20054;-75
2023/03/27 08:33:27;;;;;;;7.18;1.42;;;5.40;99.90;;;;;;4972913;28;20367;-75
2023/03/27 08:35:56;;;;;;;4.65;1.20;;;5.40;99.90;;;;;;4972847;28;20070;-75
2023/03/27 08:38:22;;;;;;;5.53;1.52;;;5.40;99.90;;;;;;4972691;28;20049;-75
2023/03/27 08:40:52;;;;;;;6.22;1.17;;;5.50;99.90;;;;;;4972663;28;20047;-75
2023/03/27 08:43:26;;;;;;;4.18;1.40;;;5.40;99.90;;;;;;4972861;28;20437;-75
2023/03/27 08:46:06;;;;;;;3.40;0.90;;;5.50;99.90;;;;;;4956425;28;20042;-75
2023/03/27 08:48:42;;;;;;;6.13;1.15;;;5.50;99.90;;;;;;4972819;28;20517;-75
2023/03/27 08:51:13;;;;;;;3.20;0.98;;;5.60;99.90;;;;;;4972206;28;20053;-75
2023/03/27 08:53:48;;;;;;;6.60;1.42;;;5.80;99.90;;;;;;4972509;28;20046;-75
2023/03/27 08:56:15;;;;;;;4.55;1.08;;;6.40;99.90;;;;;;4972558;28;20050;-75
2023/03/27 08:58:42;;;;;;;6.43;1.52;;;7.20;99.90;;;;;;4972480;28;20548;-75
2023/03/27 09:01:30;;;;;;;4.57;1.08;;;7.80;99.90;;;;;;4972220;28;20042;-75
2023/03/27 09:04:10;;;;;;;5.15;1.30;;;7.90;99.90;;;;;;4972343;28;20047;-75
2023/03/27 09:07:14;;;;;;;6.43;0.90;;;8.40;99.90;;;;;;4972435;28;20047;-75
2023/03/27 09:10:14;;;;;;;5.50;1.15;;;8.30;99.90;;;;;;4935854;28;20061;-75
2023/03/27 09:13:16;;;;;;;4.63;1.42;;;8.50;99.90;;;;;;4955904;28;20054;-75
2023/03/27 09:16:20;;;;;;;4.10;0.88;;;8.80;99.90;;;;;;4956272;28;20561;-75
2023/03/27 09:19:02;;;;;;;7.13;1.17;;;8.60;99.90;;;;;;4972185;28;20170;-75
2023/03/27 09:21:45;;;;;;;5.82;1.23;;;8.20;99.90;;;;;;4972188;28;20047;-75
2023/03/27 09:24:20;;;;;;;6.30;1.45;;;7.50;99.90;;;;;;4956164;28;20054;-75
2023/03/27 09:26:45;;;;;;;3.85;0.77;;;6.60;99.90;;;;;;4972156;28;20054;-75
2023/03/27 09:29:20;;;;;;;2.30;0.80;;;5.90;99.90;;;;;;4971916;28;20050;-75
2023/03/27 09:31:48;;;;;;;2.72;0.80;;;5.20;99.90;;;;;;4971876;28;20056;-75
2023/03/27 09:34:43;;;;;;;3.55;0.93;;;4.60;99.90;;;;;;4971631;28;20046;-75
2023/03/27 09:37:15;;;;;;;5.88;1.25;;;4.20;99.90;;;;;;4967152;28;20058;-75
2023/03/27 09:39:45;;;;;;;4.85;1.02;;;3.90;99.90;;;;;;4971834;28;20553;-75
2023/03/27 09:42:21;;;;;;;8.27;1.58;;;4.20;99.90;;;;;;4955825;28;20074;-75
2023/03/27 09:44:53;;;;;;;4.28;1.17;;;5.40;99.90;;;;;;4971939;28;20046;-75
2023/03/27 09:47:25;;;;;;;7.40;1.63;;;6.50;99.90;;;;;;4971737;28;20421;-75
2023/03/27 09:50:00;;;;;;;5.35;1.30;;;7.40;99.90;;;;;;4971683;28;20274;-75
2023/03/27 09:52:37;;;;;;;6.03;1.38;;;8.30;99.90;;;;;;4971471;28;20117;-75
2023/03/27 09:55:23;;;;;;;5.72;1.38;;;8.90;99.90;;;;;;4971664;28;20070;-75
2023/03/27 09:57:57;;;;;;;5.85;1.38;;;9.60;99.90;;;;;;4971578;28;20067;-75
2023/03/27 10:00:32;;;;;;;4.97;1.27;;;10.00;99.90;;;;;;4971590;28;20047;-75
2023/03/27 10:03:18;;;;;;;4.65;1.38;;;10.40;99.90;;;;;;4971414;28;20042;-75
2023/03/27 10:05:45;;;;;;;5.07;1.00;;;10.60;99.90;;;;;;4971922;28;20042;-75
2023/03/27 10:08:31;;;;;;;2.60;0.98;;;10.60;99.90;;;;;;4971445;28;20473;-75
2023/03/27 10:10:57;;;;;;;4.05;1.42;;;10.60;99.90;;;;;;4971383;28;20043;-75
2023/03/27 10:13:28;;;;;;;3.65;1.30;;;10.80;99.90;;;;;;4971399;28;20035;-75
2023/03/27 10:16:04;;;;;;;5.55;1.40;;;11.00;99.90;;;;;;4971505;28;20046;-76
2023/03/27 10:18:33;;;;;;;3.78;1.10;;;11.30;99.90;;;;;;4971614;28;20422;-76
2023/03/27 10:21:08;;;;;;;5.35;0.90;;;11.60;99.90;;;;;;4971418;28;20043;-76
2023/03/27 10:23:44;;;;;;;5.82;1.60;;;11.90;99.90;;;;;;4971587;28;20046;-76
2023/03/27 10:26:15;;;;;;;4.40;1.38;;;11.90;99.90;;;;;;4971414;28;20118;-76
2023/03/27 10:28:47;;;;;;;4.68;1.13;;;11.70;99.90;;;;;;4971454;28;20065;-75
2023/03/27 10:31:36;;;;;;;3.78;1.17;;;11.10;99.90;;;;;;4971238;28;20102;-75
2023/03/27 10:34:07;;;;;;;2.83;0.80;;;10.00;99.90;;;;;;4971710;28;20054;-75
2023/03/27 10:36:34;;;;;;;4.22;1.08;;;9.00;99.90;;;;;;4955262;28;20082;-75
2023/03/27 10:39:06;;;;;;;6.43;1.10;;;8.30;99.90;;;;;;4971331;28;20046;-75
2023/03/27 10:41:34;;;;;;;5.75;1.20;;;8.50;99.90;;;;;;4970995;28;20055;-75
2023/03/27 10:44:03;;;;;;;2.72;0.90;;;9.30;99.90;;;;;;4971132;28;20046;-75
2023/03/27 10:46:29;;;;;;;2.65;0.73;;;10.30;99.90;;;;;;4971304;28;20060;-75
2023/03/27 10:48:55;;;;;;;3.83;1.05;;;10.70;99.90;;;;;;4971155;28;20082;-75
2023/03/27 10:51:30;;;;;;;3.00;0.90;;;11.10;99.90;;;;;;4955029;28;20561;-75
2023/03/27 10:54:01;;;;;;;4.50;1.00;;;11.30;77.30;;;;;;4971056;28;20085;-75
2023/03/27 10:56:58;;;;;;;3.13;1.00;;;11.40;78.80;;;;;;4971231;28;20083;-75
2023/03/27 10:59:29;;;;;;;2.58;0.75;;;11.50;76.20;;;;;;4970428;28;20055;-75
2023/03/27 11:02:09;;;;;;;4.95;0.90;;;11.60;77.80;;;;;;4970908;28;20497;-74
2023/03/27 11:04:48;;;;;;;3.88;1.05;;;11.80;76.00;;;;;;4955210;28;20609;-75
2023/03/27 11:07:27;;;;;;;2.53;0.70;;;12.10;76.10;;;;;;4955784;28;20046;-75
2023/03/27 11:10:00;;;;;;;1.25;0.50;;;12.40;77.00;;;;;;4974529;28;20057;-75
2023/03/27 11:12:30;;;;;;;1.27;0.70;;;12.50;73.20;;;;;;4974295;28;20445;-75
2023/03/27 11:15:03;;;;;;;2.70;0.80;;;12.80;73.50;;;;;;4974642;28;20049;-75
2023/03/27 11:17:38;;;;;;;1.77;0.60;;;12.90;71.60;;;;;;4974676;28;20039;-75
2023/03/27 11:20:15;;;;;;;2.90;0.80;;;12.60;71.00;;;;;;4974384;28;20039;-75
2023/03/27 11:22:55;;;;;;;2.78;0.65;;;11.90;73.00;;;;;;4958008;28;20046;-75
2023/03/27 11:25:44;;;;;;;1.92;0.55;;;12.10;78.70;;;;;;4974271;28;20494;-75
2023/03/27 11:28:22;;;;;;;3.25;0.75;;;12.90;72.90;;;;;;4974538;28;20049;-74
2023/03/27 11:30:55;;;;;;;2.80;0.57;;;12.60;68.80;;;;;;4958389;28;20414;-75
2023/03/27 11:33:39;;;;;;;1.48;0.70;;;12.30;72.50;;;;;;4973918;28;20074;-75
2023/03/27 11:36:31;;;;;;;4.10;1.30;;;12.70;68.70;;;;;;4974416;28;20043;-75
2023/03/27 11:39:19;;;;;;;1.70;0.50;;;12.70;70.90;;;;;;4969610;28;20043;-74
2023/03/27 11:41:51;;;;;;;3.17;0.60;;;13.10;72.40;;;;;;4973956;28;20053;-75
2023/03/27 11:44:16;;;;;;;2.65;0.60;;;13.00;71.10;;;;;;4973894;28;20497;-75
2023/03/27 11:46:54;;;;;;;2.53;0.68;;;12.10;70.70;;;;;;4973816;28;20050;-75
2023/03/27 11:49:31;;;;;;;1.58;0.60;;;10.50;73.70;;;;;;4973805;28;20051;-75
2023/03/27 11:52:24;;;;;;;3.50;0.80;;;8.90;77.50;;;;;;4973419;28;20049;-75
2023/03/27 11:55:05;;;;;;;1.83;0.50;;;7.90;93.40;;;;;;4973630;28;20047;-75
2023/03/27 11:57:46;;;;;;;1.95;0.68;;;7.00;99.90;;;;;;4973872;28;20401;-74
2023/03/27 12:00:33;;;;;;;2.72;0.75;;;7.00;99.90;;;;;;4973605;28;20070;-74
2023/03/27 12:03:09;;;;;;;3.15;0.77;;;7.80;99.90;;;;;;4973284;28;20042;-74
2023/03/27 12:06:12;;;;;;;2.78;0.80;;;8.60;99.90;;;;;;4973475;28;20047;-74
2023/03/27 12:09:01;;;;;;;2.97;0.88;;;9.20;99.90;;;;;;4973748;28;20392;-74
2023/03/27 12:11:28;;;;;;;4.75;0.90;;;9.90;99.90;;;;;;4973274;28;20051;-74
2023/03/27 12:14:21;;;;;;;5.40;0.95;;;10.90;99.90;;;;;;4973295;28;20045;-74
2023/03/27 12:17:09;;;;;;;3.70;0.88;;;11.80;92.30;;;;;;4973542;28;20405;-74
2023/03/27 12:19:46;;;;;;;6.72;1.10;;;12.50;83.70;;;;;;4956602;28;20078;-74
2023/03/27 12:22:34;;;;;;;4.05;1.33;;;13.00;82.80;;;;;;4973014;28;20050;-74
2023/03/27 12:25:25;;;;;;;2.97;0.80;;;13.10;83.10;;;;;;4973519;28;20429;-73
2023/03/27 12:28:05;;;;;;;6.57;1.17;;;13.30;80.20;;;;;;4973138;28;20046;-73
2023/03/27 12:31:00;;;;;;;4.75;0.98;;;13.90;77.50;;;;;;4973252;28;20531;-74
2023/03/27 12:33:47;;;;;;;3.17;0.80;;;13.90;70.50;;;;;;4956962;28;20046;-74
2023/03/27 12:36:18;;;;;;;2.85;0.90;;;12.40;68.60;;;;;;4972841;28;20042;-73
2023/03/27 12:38:45;;;;;;;2.85;0.80;;;10.90;71.80;;;;;;4973198;28;20043;-73
2023/03/27 12:41:20;;;;;;;5.05;0.93;;;10.30;74.60;;;;;;4972615;28;20411;-73
2023/03/27 12:43:46;;;;;;;3.25;0.95;;;10.80;78.30;;;;;;4972828;28;20046;-73
2023/03/27 12:46:21;;;;;;;3.70;0.90;;;11.40;79.50;;;;;;4956925;28;20042;-73
2023/03/27 12:48:53;;;;;;;4.93;1.17;;;11.70;68.50;;;;;;4956516;28;20042;-73
2023/03/27 12:51:19;;;;;;;5.50;1.10;;;11.90;71.80;;;;;;4972332;28;20042;-73
2023/03/27 12:53:55;;;;;;;4.65;1.02;;;12.30;73.30;;;;;;4972570;28;20038;-73
2023/03/27 12:56:25;;;;;;;4.43;0.98;;;12.80;73.50;;;;;;4972872;28;20442;-74
2023/03/27 12:58:53;;;;;;;5.65;1.42;;;13.30;72.50;;;;;;4972585;28;20058;-73
2023/03/27 13:01:41;;;;;;;4.82;1.10;;;13.60;72.60;;;;;;4972304;28;20408;-74
2023/03/27 13:04:31;;;;;;;4.88;0.95;;;13.10;67.90;;;;;;4972547;28;20093;-74
2023/03/27 13:07:15;;;;;;;4.07;0.98;;;11.60;67.10;;;;;;4972414;28;20043;-73
2023/03/27 13:09:59;;;;;;;3.88;0.82;;;10.40;68.90;;;;;;4956589;28;20051;-74
2023/03/27 13:12:32;;;;;;;4.50;0.90;;;10.50;70.10;;;;;;4972223;28;20386;-73
2023/03/27 13:15:15;;;;;;;4.88;1.02;;;10.00;69.80;;;;;;4972228;28;20617;-73
2023/03/27 13:17:55;;;;;;;4.65;1.00;;;9.60;72.20;;;;;;4972169;28;20042;-73
2023/03/27 13:20:47;;;;;;;3.78;1.20;;;9.70;74.60;;;;;;4956143;28;20050;-73
2023/03/27 13:23:34;;;;;;;5.47;1.13;;;9.70;74.30;;;;;;4955844;28;20039;-73